地図

経路データ

SID SEASON NUMBER BASIN SUBBASIN NAME ISO_TIME NATURE LAT LON WMO_WIND WMO_PRES WMO_AGENCY TRACK_TYPE DIST2LAND LANDFALL IFLAG USA_AGENCY USA_ATCF_ID USA_LAT USA_LON USA_RECORD USA_STATUS USA_WIND USA_PRES USA_SSHS USA_R34_NE USA_R34_SE USA_R34_SW USA_R34_NW USA_R50_NE USA_R50_SE USA_R50_SW USA_R50_NW USA_R64_NE USA_R64_SE USA_R64_SW USA_R64_NW USA_POCI USA_ROCI USA_RMW USA_EYE TOKYO_LAT TOKYO_LON TOKYO_GRADE TOKYO_WIND TOKYO_PRES TOKYO_R50_DIR TOKYO_R50_LONG TOKYO_R50_SHORT TOKYO_R30_DIR TOKYO_R30_LONG TOKYO_R30_SHORT TOKYO_LAND CMA_LAT CMA_LON CMA_CAT CMA_WIND CMA_PRES HKO_LAT HKO_LON HKO_CAT HKO_WIND HKO_PRES NEWDELHI_LAT NEWDELHI_LON NEWDELHI_GRADE NEWDELHI_WIND NEWDELHI_PRES NEWDELHI_CI NEWDELHI_DP NEWDELHI_POCI REUNION_LAT REUNION_LON REUNION_TYPE REUNION_WIND REUNION_PRES REUNION_TNUM REUNION_CI REUNION_RMW REUNION_R34_NE REUNION_R34_SE REUNION_R34_SW REUNION_R34_NW REUNION_R50_NE REUNION_R50_SE REUNION_R50_SW REUNION_R50_NW REUNION_R64_NE REUNION_R64_SE REUNION_R64_SW REUNION_R64_NW BOM_LAT BOM_LON BOM_TYPE BOM_WIND BOM_PRES BOM_TNUM BOM_CI BOM_RMW BOM_R34_NE BOM_R34_SE BOM_R34_SW BOM_R34_NW BOM_R50_NE BOM_R50_SE BOM_R50_SW BOM_R50_NW BOM_R64_NE BOM_R64_SE BOM_R64_SW BOM_R64_NW BOM_ROCI BOM_POCI BOM_EYE BOM_POS_METHOD BOM_PRES_METHOD NADI_LAT NADI_LON NADI_CAT NADI_WIND NADI_PRES WELLINGTON_LAT WELLINGTON_LON WELLINGTON_WIND WELLINGTON_PRES DS824_LAT DS824_LON DS824_STAGE DS824_WIND DS824_PRES TD9636_LAT TD9636_LON TD9636_STAGE TD9636_WIND TD9636_PRES TD9635_LAT TD9635_LON TD9635_WIND TD9635_PRES TD9635_ROCI NEUMANN_LAT NEUMANN_LON NEUMANN_CLASS NEUMANN_WIND NEUMANN_PRES MLC_LAT MLC_LON MLC_CLASS MLC_WIND MLC_PRES USA_GUST BOM_GUST BOM_GUST_PER REUNION_GUST REUNION_GUST_PER USA_SEAHGT USA_SEARAD_NE USA_SEARAD_SE USA_SEARAD_SW USA_SEARAD_NW STORM_SPEED STORM_DIR
1906282N16129 1906 45 WP MM NOT_NAMED 1906-10-08 16:00:00 NR 16.2000 128.800 main 538 534 __________O___ -1 16.2000 128.800 7 6 331
1906282N16129 1906 45 WP MM NOT_NAMED 1906-10-08 18:00:00 NR 16.3697 128.697 main 539 536 __________P___ -1 16.3697 128.697 7 6 332
1906282N16129 1906 45 WP MM NOT_NAMED 1906-10-08 21:00:00 NR 16.6606 128.550 main 540 540 __________P___ -1 16.6606 128.550 7 7 339
1906282N16129 1906 45 WP MM NOT_NAMED 1906-10-09 00:00:00 NR 17.0449 128.422 main 551 558 __________P___ -1 17.0449 128.422 7 9 347
1906282N16129 1906 45 WP MM NOT_NAMED 1906-10-09 03:00:00 NR 17.5790 128.324 main 587 587 __________P___ -1 17.5790 128.324 7 12 351
1906282N16129 1906 45 WP MM NOT_NAMED 1906-10-09 04:00:00 NR 17.8000 128.300 main 603 603 __________O___ -1 17.8000 128.300 7 15 356
1906282N16129 1906 45 WP MM NOT_NAMED 1906-10-09 06:00:00 NR 18.3118 128.268 main 631 633 __________P___ -1 18.3118 128.268 7 17 359
1906282N16129 1906 45 WP MM NOT_NAMED 1906-10-09 09:00:00 NR 19.2063 128.270 main 637 639 __________P___ -1 19.2063 128.270 7 19 3
1906282N16129 1906 45 WP MM NOT_NAMED 1906-10-09 12:00:00 NR 20.1699 128.348 main 661 671 __________P___ -1 20.1699 128.348 7 19 7
1906282N16129 1906 45 WP MM NOT_NAMED 1906-10-09 15:00:00 NR 21.1087 128.519 main 715 720 __________P___ -1 21.1087 128.519 7 19 11
1906282N16129 1906 45 WP MM NOT_NAMED 1906-10-09 16:00:00 NR 21.4000 128.600 main 739 739 __________O___ -1 21.4000 128.600 7 16 18
1906282N16129 1906 45 WP MM NOT_NAMED 1906-10-09 18:00:00 NR 21.8798 128.783 main 762 757 __________P___ -1 21.8798 128.783 7 15 24
1906282N16129 1906 45 WP MM NOT_NAMED 1906-10-09 21:00:00 NR 22.5361 129.146 main 767 770 __________P___ -1 22.5361 129.146 7 15 31
1906282N16129 1906 45 WP MM NOT_NAMED 1906-10-10 00:00:00 NR 23.1555 129.596 main 795 795 __________P___ -1 23.1555 129.596 7 15 36
1906282N16129 1906 45 WP MM NOT_NAMED 1906-10-10 03:00:00 NR 23.7820 130.115 main 806 782 __________P___ -1 23.7820 130.115 7 16 37
1906282N16129 1906 45 WP MM NOT_NAMED 1906-10-10 04:00:00 NR 24.0000 130.300 main 782 725 __________O___ -1 24.0000 130.300 7 17 35
1906282N16129 1906 45 WP MM NOT_NAMED 1906-10-10 06:00:00 NR 24.4952 130.655 main 725 638 __________P___ -1 24.4952 130.655 7 18 34
1906282N16129 1906 45 WP MM NOT_NAMED 1906-10-10 09:00:00 NR 25.2636 131.238 main 638 568 __________P___ -1 25.2636 131.238 7 19 36
1906282N16129 1906 45 WP MM NOT_NAMED 1906-10-10 12:00:00 NR 26.0326 131.876 main 570 503 __________P___ -1 26.0326 131.876 7 19 38
1906282N16129 1906 45 WP MM NOT_NAMED 1906-10-10 15:00:00 NR 26.7681 132.562 main 503 490 __________P___ -1 26.7681 132.562 7 19 40
1906282N16129 1906 45 WP MM NOT_NAMED 1906-10-10 16:00:00 NR 27.0000 132.800 main 490 469 __________O___ -1 27.0000 132.800 7 19 44
1906282N16129 1906 45 WP MM NOT_NAMED 1906-10-10 18:00:00 NR 27.4389 133.288 main 474 454 __________P___ -1 27.4389 133.288 7 18 47
1906282N16129 1906 45 WP MM NOT_NAMED 1906-10-10 21:00:00 NR 28.0436 134.046 main 454 444 __________P___ -1 28.0436 134.046 7 18 50
1906282N16129 1906 45 WP MM NOT_NAMED 1906-10-11 00:00:00 NR 28.6004 134.830 main 452 451 __________P___ -1 28.6004 134.830 7 18 52
1906282N16129 1906 45 WP MM NOT_NAMED 1906-10-11 03:00:00 NR 29.1277 135.630 main 471 457 __________P___ -1 29.1277 135.630 7 18 53
1906282N16129 1906 45 WP MM NOT_NAMED 1906-10-11 04:00:00 NR 29.3000 135.900 main 457 __________O___ -1 29.3000 135.900 7 18 54

デジタル台風データ・検索

IBTrACS Databaseについて

本データベースは、米国NOAAが公開する1842年以降の世界の熱帯低気圧のベストトラックデータアーカイブInternational Best Track Archive for Climate Stewardship (IBTrACS)を、ウェブで閲覧しやすい形式に変換したものです。

最終更新日:2021-12-08